Terminal Aerodrome Forecast
Issued by NWS Sterling, VA

Current Version | Previous Version | Graphics & Text | Print | Product List | Glossary On
Versions: 1 2 3 4 5 6 7 8 9 10 11 12 13 14 15 16 17 18 19 20 21 22 23 24 25 26 27
501
FTUS41 KLWX 181720
TAFIAD
TAF
KIAD 181720Z 1818/1924 31014G23KT P6SM SCT030 BKN050
     FM182300 32009KT P6SM SCT030 BKN070
     FM190200 32005KT P6SM SCT035 BKN150
     FM190600 31004KT P6SM FEW035 SCT070=

USA.gov is the U.S. government's official web portal to all federal, state and local government web resources and services.